createdAt,value
2018-09-27T00:01:15.190Z,1.27
2018-09-27T00:03:43.377Z,1.00
2018-09-27T00:06:14.164Z,1.40
2018-09-27T00:08:42.315Z,0.90
2018-09-27T00:11:10.510Z,1.40
2018-09-27T00:13:38.634Z,1.40
2018-09-27T00:16:07.107Z,1.33
2018-09-27T00:18:35.270Z,1.87
2018-09-27T00:21:03.413Z,1.57
2018-09-27T00:23:32.341Z,1.50
2018-09-27T00:26:00.808Z,1.03
2018-09-27T00:28:28.966Z,1.53
2018-09-27T00:30:57.125Z,1.40
2018-09-27T00:33:25.321Z,1.50
2018-09-27T00:35:53.493Z,1.20
2018-09-27T00:38:21.705Z,1.30
2018-09-27T00:40:49.884Z,1.23
2018-09-27T00:43:18.043Z,1.40
2018-09-27T00:45:46.833Z,1.70
2018-09-27T00:48:16.672Z,1.47
2018-09-27T00:50:45.789Z,1.30
2018-09-27T00:53:14.008Z,1.33
2018-09-27T00:55:42.424Z,1.67
2018-09-27T00:58:10.906Z,1.43
2018-09-27T01:00:40.019Z,1.47
2018-09-27T01:03:08.382Z,1.40
2018-09-27T01:05:37.278Z,1.53
2018-09-27T01:08:05.558Z,1.40
2018-09-27T01:10:33.705Z,1.73
2018-09-27T01:13:02.224Z,1.50
2018-09-27T01:15:30.385Z,2.00
2018-09-27T01:17:58.602Z,2.00
2018-09-27T01:20:26.786Z,1.30
2018-09-27T01:22:55.285Z,1.50
2018-09-27T01:25:23.417Z,1.40
2018-09-27T01:27:51.551Z,1.40
2018-09-27T01:30:19.733Z,1.20
2018-09-27T01:32:47.864Z,1.47
2018-09-27T01:35:16.037Z,1.30
2018-09-27T01:37:44.224Z,1.10
2018-09-27T01:40:12.773Z,1.30
2018-09-27T01:42:40.960Z,1.10
2018-09-27T01:45:09.142Z,1.33
2018-09-27T01:47:37.337Z,1.30
2018-09-27T01:50:05.509Z,1.00
2018-09-27T01:52:34.422Z,1.50
2018-09-27T01:55:02.573Z,1.10
2018-09-27T01:57:30.758Z,1.40
2018-09-27T01:59:58.915Z,1.40
2018-09-27T02:02:27.094Z,1.37
2018-09-27T02:04:55.571Z,1.07
2018-09-27T02:07:23.814Z,1.40
2018-09-27T02:09:51.949Z,1.47
2018-09-27T02:12:20.149Z,1.27
2018-09-27T02:14:48.297Z,1.63
2018-09-27T02:17:16.449Z,1.03
2018-09-27T02:19:44.649Z,1.50
2018-09-27T02:22:12.854Z,1.10
2018-09-27T02:24:41.034Z,1.90
2018-09-27T02:27:09.202Z,1.50
2018-09-27T02:29:37.377Z,1.23
2018-09-27T02:32:06.039Z,1.60
2018-09-27T02:34:34.229Z,1.57
2018-09-27T02:37:02.455Z,1.20
2018-09-27T02:39:30.629Z,1.10
2018-09-27T02:41:58.823Z,1.00
2018-09-27T02:44:27.003Z,1.30
2018-09-27T02:46:55.469Z,1.27
2018-09-27T02:49:23.633Z,1.30
2018-09-27T02:51:51.808Z,1.67
2018-09-27T02:54:19.978Z,1.60
2018-09-27T02:56:48.107Z,1.47
2018-09-27T02:59:16.295Z,1.10
2018-09-27T03:01:44.570Z,1.07
2018-09-27T03:04:12.743Z,1.67
2018-09-27T03:09:37.713Z,1.80
2018-09-27T03:12:05.864Z,1.10
2018-09-27T03:14:34.043Z,1.03
2018-09-27T03:17:02.232Z,1.20
2018-09-27T03:19:30.445Z,1.07
2018-09-27T03:21:58.613Z,1.50
2018-09-27T03:24:26.773Z,0.90
2018-09-27T03:26:55.239Z,0.80
2018-09-27T03:29:23.425Z,1.30
2018-09-27T03:31:51.669Z,0.83
2018-09-27T03:34:19.843Z,1.20
2018-09-27T03:36:48.006Z,1.30
2018-09-27T03:39:16.707Z,1.00
2018-09-27T03:41:45.570Z,0.90
2018-09-27T03:44:13.745Z,0.90
2018-09-27T03:46:41.973Z,1.03
2018-09-27T03:49:10.093Z,1.23
2018-09-27T03:51:38.269Z,1.23
2018-09-27T03:54:06.438Z,1.10
2018-09-27T03:56:34.627Z,1.60
2018-09-27T03:59:03.952Z,1.70
2018-09-27T04:01:32.160Z,1.60
2018-09-27T04:04:00.337Z,1.50
2018-09-27T04:06:28.642Z,1.90
2018-09-27T04:08:56.809Z,2.17
2018-09-27T04:11:25.557Z,1.93
2018-09-27T04:13:53.741Z,2.00
2018-09-27T04:16:22.455Z,1.97
2018-09-27T04:18:51.314Z,2.33
2018-09-27T04:21:19.488Z,2.37
2018-09-27T04:23:47.693Z,2.17
2018-09-27T04:26:15.839Z,1.80
2018-09-27T04:28:43.985Z,2.00
2018-09-27T04:31:12.169Z,2.20
2018-09-27T04:33:40.340Z,2.37
2018-09-27T04:36:08.460Z,1.73
2018-09-27T04:38:36.664Z,1.60
2018-09-27T04:41:04.883Z,2.20
2018-09-27T04:43:34.494Z,2.10
2018-09-27T04:46:02.802Z,2.10
2018-09-27T04:48:30.976Z,1.80
2018-09-27T04:50:59.129Z,2.00
2018-09-27T04:53:27.292Z,1.63
2018-09-27T04:55:55.457Z,1.70
2018-09-27T04:58:23.626Z,1.50
2018-09-27T05:00:52.345Z,1.60
2018-09-27T05:03:20.521Z,1.50
2018-09-27T05:05:51.769Z,2.10
2018-09-27T05:08:19.970Z,1.70
2018-09-27T05:10:48.165Z,2.23
2018-09-27T05:13:16.388Z,1.83
2018-09-27T05:15:44.604Z,2.17
2018-09-27T05:18:12.743Z,2.20
2018-09-27T05:20:40.961Z,1.70
2018-09-27T05:23:09.139Z,1.87
2018-09-27T05:25:37.360Z,2.07
2018-09-27T05:28:05.517Z,1.80
2018-09-27T05:30:33.685Z,2.00
2018-09-27T05:33:01.858Z,1.80
2018-09-27T05:35:30.005Z,2.20
2018-09-27T05:37:58.974Z,3.07
2018-09-27T05:40:27.149Z,2.50
2018-09-27T05:42:55.341Z,3.77
2018-09-27T05:45:23.491Z,4.10
2018-09-27T05:47:51.620Z,2.80
2018-09-27T05:50:19.774Z,2.50
2018-09-27T05:52:47.945Z,2.83
2018-09-27T05:55:16.137Z,2.20
2018-09-27T05:57:44.353Z,2.67
2018-09-27T06:00:12.485Z,2.27
2018-09-27T06:02:40.644Z,1.97
2018-09-27T06:05:08.814Z,2.10
2018-09-27T06:07:36.987Z,2.47
2018-09-27T06:10:05.334Z,2.47
2018-09-27T06:12:33.499Z,2.20
2018-09-27T06:15:01.775Z,1.10
2018-09-27T06:17:29.927Z,1.10
2018-09-27T06:19:58.104Z,1.60
2018-09-27T06:22:26.289Z,2.80
2018-09-27T06:24:54.486Z,1.90
2018-09-27T06:27:22.707Z,2.40
2018-09-27T06:29:50.886Z,1.97
2018-09-27T06:32:19.082Z,1.90
2018-09-27T06:34:47.282Z,1.73
2018-09-27T06:37:15.478Z,1.67
2018-09-27T06:39:43.634Z,1.33
2018-09-27T06:42:11.824Z,1.60
2018-09-27T06:44:40.047Z,1.50
2018-09-27T06:47:08.182Z,1.70
2018-09-27T06:49:36.341Z,2.03
2018-09-27T06:52:04.550Z,1.60
2018-09-27T06:54:33.538Z,1.70
2018-09-27T06:57:01.757Z,2.03
2018-09-27T06:59:29.915Z,1.60
2018-09-27T07:01:58.035Z,1.80
2018-09-27T07:04:26.207Z,1.30
2018-09-27T07:06:54.357Z,1.83
2018-09-27T07:09:22.516Z,1.10
2018-09-27T07:11:50.694Z,2.40
2018-09-27T07:14:18.823Z,1.50
2018-09-27T07:16:47.025Z,1.50
2018-09-27T07:19:15.210Z,1.60
2018-09-27T07:21:43.357Z,1.67
2018-09-27T07:24:11.530Z,1.60
2018-09-27T07:26:39.740Z,1.80
2018-09-27T07:29:07.887Z,2.00
2018-09-27T07:31:36.022Z,1.70
2018-09-27T07:34:04.207Z,2.10
2018-09-27T07:36:32.457Z,1.60
2018-09-27T07:39:00.605Z,1.83
2018-09-27T07:41:28.741Z,2.27
2018-09-27T07:43:56.906Z,2.00
2018-09-27T07:46:25.881Z,3.00
2018-09-27T07:48:54.038Z,2.23
2018-09-27T07:51:22.254Z,2.73
2018-09-27T07:53:50.400Z,1.97
2018-09-27T07:56:18.595Z,2.40
2018-09-27T07:58:46.910Z,2.40
2018-09-27T08:01:15.375Z,2.10
2018-09-27T08:03:43.543Z,2.10
2018-09-27T08:06:11.802Z,1.90
2018-09-27T08:08:40.005Z,1.70
2018-09-27T08:11:08.360Z,1.80
2018-09-27T08:13:36.478Z,2.00
2018-09-27T08:16:05.603Z,2.00
2018-09-27T08:18:33.980Z,2.13
2018-09-27T08:21:02.952Z,2.10
2018-09-27T08:23:31.877Z,2.40
2018-09-27T08:26:00.322Z,2.43
2018-09-27T08:28:28.497Z,2.53
2018-09-27T08:30:56.773Z,2.47
2018-09-27T08:33:24.818Z,2.60
2018-09-27T08:35:53.297Z,2.50
2018-09-27T08:38:21.553Z,2.33
2018-09-27T08:40:49.672Z,2.07
2018-09-27T08:43:17.849Z,2.30
2018-09-27T08:45:46.202Z,2.50
2018-09-27T08:48:14.197Z,1.83
2018-09-27T08:50:42.364Z,2.53
2018-09-27T08:53:10.528Z,1.97
2018-09-27T08:55:39.631Z,1.87
2018-09-27T08:58:07.985Z,2.17
2018-09-27T09:00:36.193Z,2.40
2018-09-27T09:03:04.380Z,1.97
2018-09-27T09:05:32.541Z,2.13
2018-09-27T09:08:00.696Z,2.13
2018-09-27T09:10:28.882Z,2.00
2018-09-27T09:12:57.081Z,2.30
2018-09-27T09:15:25.287Z,2.00
2018-09-27T09:17:53.445Z,2.17
2018-09-27T09:20:21.629Z,2.00
2018-09-27T09:22:49.768Z,1.87
2018-09-27T09:25:17.973Z,1.90
2018-09-27T09:27:46.107Z,1.53
2018-09-27T09:30:15.364Z,1.90
2018-09-27T09:32:43.881Z,1.70
2018-09-27T09:35:12.026Z,1.73
2018-09-27T09:37:40.243Z,1.70
2018-09-27T09:40:08.398Z,2.03
2018-09-27T09:42:36.557Z,1.93
2018-09-27T09:45:04.781Z,2.13
2018-09-27T09:47:32.982Z,1.80
2018-09-27T09:50:01.804Z,2.20
2018-09-27T09:52:29.925Z,2.43
2018-09-27T09:54:58.109Z,2.17
2018-09-27T09:57:26.279Z,2.23
2018-09-27T09:59:54.868Z,2.30
2018-09-27T10:02:23.083Z,2.47
2018-09-27T10:04:52.190Z,2.37
2018-09-27T10:07:20.357Z,2.40
2018-09-27T10:09:48.577Z,2.60
2018-09-27T10:12:16.777Z,1.67
2018-09-27T10:14:44.928Z,2.23
2018-09-27T10:17:13.081Z,2.67
2018-09-27T10:19:41.245Z,2.20
2018-09-27T10:22:10.431Z,2.80
2018-09-27T10:24:38.610Z,2.60
2018-09-27T10:27:06.781Z,3.13
2018-09-27T10:29:35.950Z,2.50
2018-09-27T10:32:04.940Z,2.50
2018-09-27T10:34:33.179Z,2.37
2018-09-27T10:37:01.745Z,3.00
2018-09-27T10:39:29.957Z,2.60
2018-09-27T10:41:58.143Z,2.40
2018-09-27T10:44:26.321Z,2.77
2018-09-27T10:46:54.742Z,2.63
2018-09-27T10:49:22.856Z,2.70
2018-09-27T10:51:50.989Z,2.37
2018-09-27T10:54:19.205Z,2.77
2018-09-27T10:56:47.414Z,2.70
2018-09-27T10:59:15.597Z,2.37
2018-09-27T11:01:43.737Z,2.67
2018-09-27T11:04:11.972Z,1.80
2018-09-27T11:06:40.111Z,1.63
2018-09-27T11:09:08.917Z,1.40
2018-09-27T11:11:37.233Z,1.63
2018-09-27T11:14:05.441Z,1.97
2018-09-27T11:16:33.692Z,1.80
2018-09-27T11:19:02.701Z,1.53
2018-09-27T11:21:31.181Z,1.50
2018-09-27T11:23:59.317Z,2.30
2018-09-27T11:26:27.514Z,1.57
2018-09-27T11:29:01.229Z,1.70
2018-09-27T11:31:34.887Z,1.90
2018-09-27T11:34:03.517Z,2.27
2018-09-27T11:36:31.687Z,1.93
2018-09-27T11:38:59.874Z,2.33
2018-09-27T11:41:28.009Z,1.97
2018-09-27T11:43:56.253Z,1.50
2018-09-27T11:46:24.409Z,1.90
2018-09-27T11:48:52.632Z,1.23
2018-09-27T11:51:20.751Z,1.20
2018-09-27T11:53:48.873Z,1.30
2018-09-27T11:56:18.033Z,1.70
2018-09-27T11:58:46.196Z,1.27
2018-09-27T12:01:14.391Z,1.43
2018-09-27T12:03:42.549Z,1.43
2018-09-27T12:06:10.705Z,1.63
2018-09-27T12:08:38.857Z,1.40
2018-09-27T12:11:07.043Z,1.50
2018-09-27T12:13:35.206Z,1.67
2018-09-27T12:16:03.393Z,1.60
2018-09-27T12:18:31.585Z,1.53
2018-09-27T12:21:00.573Z,1.80
2018-09-27T12:23:28.745Z,2.00
2018-09-27T12:25:56.918Z,2.33
2018-09-27T12:28:25.104Z,2.40
2018-09-27T12:30:53.242Z,2.00
2018-09-27T12:33:21.429Z,2.10
2018-09-27T12:35:49.641Z,2.30
2018-09-27T12:38:17.977Z,1.70
2018-09-27T12:40:46.171Z,1.67
2018-09-27T12:43:14.233Z,1.90
2018-09-27T12:45:42.496Z,1.60
2018-09-27T12:48:10.745Z,1.23
2018-09-27T12:50:40.417Z,1.50
2018-09-27T12:53:08.624Z,1.77
2018-09-27T12:55:36.965Z,1.30
2018-09-27T12:58:05.217Z,1.30
2018-09-27T13:00:33.392Z,2.00
2018-09-27T13:03:01.712Z,1.87
2018-09-27T13:05:29.750Z,1.60
2018-09-27T13:07:57.950Z,1.70
2018-09-27T13:10:26.162Z,1.47
2018-09-27T13:12:54.548Z,1.30
2018-09-27T13:15:22.637Z,1.40
2018-09-27T13:17:51.216Z,1.80
2018-09-27T13:20:19.427Z,1.80
2018-09-27T13:22:47.589Z,1.97
2018-09-27T13:25:16.777Z,1.57
2018-09-27T13:27:45.943Z,1.53
2018-09-27T13:30:14.202Z,1.70
2018-09-27T13:32:42.297Z,2.17
2018-09-27T13:35:10.462Z,1.80
2018-09-27T13:37:38.590Z,2.13
2018-09-27T13:40:06.813Z,1.50
2018-09-27T13:42:34.981Z,1.33
2018-09-27T13:45:03.240Z,1.40
2018-09-27T13:47:31.311Z,1.33
2018-09-27T13:49:59.478Z,1.60
2018-09-27T13:52:27.667Z,1.23
2018-09-27T13:54:55.878Z,1.90
2018-09-27T13:57:24.109Z,1.60
2018-09-27T13:59:52.218Z,1.40
2018-09-27T14:02:20.405Z,1.40
2018-09-27T14:04:48.802Z,3.57
2018-09-27T14:07:17.657Z,1.60
2018-09-27T14:09:45.831Z,1.93
2018-09-27T14:12:14.324Z,1.63
2018-09-27T14:14:42.509Z,1.40
2018-09-27T14:17:10.675Z,1.50
2018-09-27T14:19:39.247Z,1.63
2018-09-27T14:22:07.406Z,1.90
2018-09-27T14:24:35.562Z,1.47
2018-09-27T14:27:05.653Z,1.47
2018-09-27T14:29:33.824Z,2.03
2018-09-27T14:32:02.000Z,2.00
2018-09-27T14:34:30.174Z,1.77
2018-09-27T14:36:58.385Z,1.80
2018-09-27T14:39:26.524Z,1.70
2018-09-27T14:41:54.681Z,1.77
2018-09-27T14:44:22.840Z,1.80
2018-09-27T14:46:51.001Z,1.80
2018-09-27T14:49:19.177Z,1.83
2018-09-27T14:51:47.385Z,1.97
2018-09-27T14:54:15.595Z,1.77
2018-09-27T14:56:43.765Z,1.93
2018-09-27T14:59:11.985Z,1.90
2018-09-27T15:01:40.243Z,1.50
2018-09-27T15:04:08.405Z,1.70
2018-09-27T15:06:36.647Z,1.90
2018-09-27T15:09:07.807Z,1.77
2018-09-27T15:11:35.999Z,2.00
2018-09-27T15:14:04.157Z,1.93
2018-09-27T15:16:32.292Z,1.43
2018-09-27T15:19:00.473Z,1.70
2018-09-27T15:21:28.713Z,1.63
2018-09-27T15:23:56.901Z,1.60
2018-09-27T15:26:25.311Z,1.40
2018-09-27T15:28:53.485Z,1.53
2018-09-27T15:31:21.661Z,1.90
2018-09-27T15:33:49.813Z,1.60
2018-09-27T15:36:18.081Z,1.43
2018-09-27T15:38:46.183Z,2.13
2018-09-27T15:41:14.376Z,1.67
2018-09-27T15:43:42.532Z,1.20
2018-09-27T15:46:10.718Z,1.27
2018-09-27T15:48:39.388Z,1.57
2018-09-27T15:51:07.557Z,1.20
2018-09-27T15:53:35.701Z,1.70
2018-09-27T15:56:03.926Z,1.70
2018-09-27T15:58:32.071Z,1.83
2018-09-27T16:01:00.245Z,1.27
2018-09-27T16:03:28.466Z,1.10
2018-09-27T16:05:56.634Z,1.50
2018-09-27T16:08:24.836Z,1.90
2018-09-27T16:10:53.080Z,1.70
2018-09-27T16:13:21.247Z,1.20
2018-09-27T16:15:49.421Z,2.30
2018-09-27T16:18:17.592Z,1.70
2018-09-27T16:20:45.813Z,1.73
2018-09-27T16:23:13.979Z,1.70
2018-09-27T16:25:42.497Z,1.50
2018-09-27T16:28:10.686Z,1.53
2018-09-27T16:30:39.912Z,1.67
2018-09-27T16:33:08.135Z,1.63
2018-09-27T16:35:36.363Z,1.67
2018-09-27T16:38:04.521Z,1.43
2018-09-27T16:40:32.687Z,1.70
2018-09-27T16:43:01.826Z,1.27
2018-09-27T16:45:30.457Z,2.10
2018-09-27T16:47:58.823Z,1.30
2018-09-27T16:50:27.229Z,1.90
2018-09-27T16:52:55.425Z,1.73
2018-09-27T16:55:23.573Z,1.83
2018-09-27T16:57:51.744Z,1.47
2018-09-27T17:00:19.929Z,1.60
2018-09-27T17:02:48.125Z,1.27
2018-09-27T17:05:16.350Z,1.70
2018-09-27T17:07:44.520Z,1.50
2018-09-27T17:10:12.967Z,1.33
2018-09-27T17:12:41.176Z,1.80
2018-09-27T17:15:09.346Z,1.97
2018-09-27T17:17:37.663Z,2.10
2018-09-27T17:20:05.850Z,2.43
2018-09-27T17:22:34.135Z,3.90
2018-09-27T17:25:02.730Z,2.17
2018-09-27T17:27:30.861Z,2.90
2018-09-27T17:29:59.106Z,2.10
2018-09-27T17:32:27.266Z,2.73
2018-09-27T17:34:55.427Z,3.30
2018-09-27T17:37:24.550Z,5.60
2018-09-27T17:39:52.782Z,4.10
2018-09-27T17:42:20.970Z,2.40
2018-09-27T17:44:49.154Z,1.60
2018-09-27T17:47:17.441Z,2.40
2018-09-27T17:49:45.665Z,4.20
2018-09-27T17:52:13.787Z,2.30
2018-09-27T17:54:41.954Z,3.30
2018-09-27T17:57:10.146Z,4.23
2018-09-27T17:59:38.353Z,3.10
2018-09-27T18:02:06.564Z,2.90
2018-09-27T18:04:34.715Z,2.20
2018-09-27T18:07:02.896Z,2.30
2018-09-27T18:09:31.061Z,2.60
2018-09-27T18:11:59.260Z,2.47
2018-09-27T18:14:27.469Z,1.90
2018-09-27T18:16:55.639Z,2.00
2018-09-27T18:19:23.792Z,3.80
2018-09-27T18:21:51.962Z,2.40
2018-09-27T18:24:20.161Z,4.77
2018-09-27T18:26:48.361Z,1.90
2018-09-27T18:29:17.348Z,3.83
2018-09-27T18:31:45.559Z,3.20
2018-09-27T18:34:13.705Z,3.90
2018-09-27T18:36:41.889Z,2.70
2018-09-27T18:39:12.173Z,3.37
2018-09-27T18:41:40.828Z,3.50
2018-09-27T18:44:09.252Z,2.90
2018-09-27T18:46:37.388Z,3.33
2018-09-27T18:49:05.658Z,3.03
2018-09-27T18:51:33.790Z,2.87
2018-09-27T18:54:01.945Z,2.87
2018-09-27T18:56:30.101Z,3.73
2018-09-27T18:58:58.292Z,3.13
2018-09-27T19:01:26.441Z,2.53
2018-09-27T19:03:54.894Z,2.70
2018-09-27T19:06:23.037Z,3.13
2018-09-27T19:08:51.216Z,3.70
2018-09-27T19:11:19.403Z,3.40
2018-09-27T19:13:47.587Z,3.33
2018-09-27T19:16:15.749Z,3.50
2018-09-27T19:18:43.946Z,3.50
2018-09-27T19:21:12.158Z,3.90
2018-09-27T19:23:40.522Z,3.87
2018-09-27T19:26:08.745Z,2.77
2018-09-27T19:28:36.921Z,3.17
2018-09-27T19:31:05.130Z,2.67
2018-09-27T19:33:33.250Z,2.70
2018-09-27T19:36:02.123Z,3.30
2018-09-27T19:38:30.341Z,2.93
2018-09-27T19:40:58.519Z,3.20
2018-09-27T19:43:26.633Z,2.90
2018-09-27T19:45:54.823Z,2.57
2018-09-27T19:48:23.000Z,3.10
2018-09-27T19:50:51.251Z,3.23
2018-09-27T19:53:19.402Z,5.03
2018-09-27T19:55:47.573Z,4.37
2018-09-27T19:58:15.871Z,3.07
2018-09-27T20:00:44.398Z,3.03
2018-09-27T20:03:12.592Z,4.37
2018-09-27T20:05:40.761Z,2.53
2018-09-27T20:08:09.779Z,2.80
2018-09-27T20:10:38.042Z,3.60
2018-09-27T20:13:06.461Z,3.37
2018-09-27T20:15:34.913Z,3.40
2018-09-27T20:18:03.900Z,2.30
2018-09-27T20:20:32.037Z,3.30
2018-09-27T20:23:00.277Z,3.23
2018-09-27T20:25:28.376Z,3.10
2018-09-27T20:27:56.582Z,3.27
2018-09-27T20:30:24.753Z,4.27
2018-09-27T20:32:52.968Z,3.70
2018-09-27T20:35:21.151Z,3.00
2018-09-27T20:37:49.306Z,3.00
2018-09-27T20:40:18.050Z,3.10
2018-09-27T20:42:46.240Z,2.83
2018-09-27T20:45:14.401Z,3.03
2018-09-27T20:47:42.643Z,3.07
2018-09-27T20:50:11.184Z,2.67
2018-09-27T20:52:39.390Z,2.70
2018-09-27T20:55:07.573Z,2.37
2018-09-27T20:57:35.798Z,3.30
2018-09-27T21:00:05.185Z,3.00
2018-09-27T21:02:33.501Z,2.80
2018-09-27T21:05:02.581Z,2.50
2018-09-27T21:07:30.750Z,2.70
2018-09-27T21:09:58.993Z,3.27
2018-09-27T21:12:27.166Z,3.07
2018-09-27T21:14:55.326Z,2.43
2018-09-27T21:17:23.577Z,3.53
2018-09-27T21:19:51.963Z,2.80
2018-09-27T21:22:20.149Z,3.13
2018-09-27T21:24:48.271Z,2.93
2018-09-27T21:27:16.429Z,3.40
2018-09-27T21:29:44.576Z,3.10
2018-09-27T21:32:12.773Z,2.80
2018-09-27T21:34:40.930Z,3.13
2018-09-27T21:37:09.118Z,3.23
2018-09-27T21:39:37.389Z,3.63
2018-09-27T21:42:06.429Z,3.20
2018-09-27T21:44:34.628Z,2.93
2018-09-27T21:47:03.186Z,3.40
2018-09-27T21:49:31.353Z,2.70
2018-09-27T21:51:59.526Z,3.90
2018-09-27T21:54:27.929Z,4.47
2018-09-27T21:56:56.061Z,3.20
2018-09-27T21:59:24.244Z,3.53
2018-09-27T22:01:52.445Z,3.63
2018-09-27T22:04:20.589Z,3.87
2018-09-27T22:06:49.625Z,3.30
2018-09-27T22:09:17.821Z,4.20
2018-09-27T22:11:45.994Z,3.57
2018-09-27T22:14:14.209Z,4.00
2018-09-27T22:16:42.425Z,3.20
2018-09-27T22:19:10.637Z,3.70
2018-09-27T22:21:38.825Z,4.20
2018-09-27T22:24:06.996Z,3.87
2018-09-27T22:26:35.154Z,3.73
2018-09-27T22:29:03.506Z,3.20
2018-09-27T22:31:31.715Z,3.90
2018-09-27T22:33:59.972Z,3.50
2018-09-27T22:36:28.249Z,3.73
2018-09-27T22:38:56.409Z,4.30
2018-09-27T22:41:24.593Z,3.87
2018-09-27T22:43:52.813Z,3.90
2018-09-27T22:46:20.988Z,3.90
2018-09-27T22:48:49.176Z,3.40
2018-09-27T22:51:17.332Z,2.97
2018-09-27T22:53:45.525Z,3.33
2018-09-27T22:56:13.707Z,2.80
2018-09-27T22:58:41.875Z,3.33
2018-09-27T23:01:10.037Z,3.07
2018-09-27T23:03:38.218Z,2.70
2018-09-27T23:06:06.379Z,2.70
2018-09-27T23:08:34.597Z,3.03
2018-09-27T23:11:02.781Z,2.67
2018-09-27T23:13:30.969Z,2.90
2018-09-27T23:16:00.099Z,2.57
2018-09-27T23:18:28.290Z,3.10
2018-09-27T23:20:56.440Z,3.10
2018-09-27T23:23:24.686Z,2.80
2018-09-27T23:25:52.932Z,3.17
2018-09-27T23:28:21.090Z,2.83
2018-09-27T23:30:49.256Z,3.20
2018-09-27T23:33:17.424Z,2.73
2018-09-27T23:35:51.604Z,3.47
2018-09-27T23:38:19.803Z,3.20
2018-09-27T23:40:48.285Z,3.80
2018-09-27T23:43:16.464Z,3.23
2018-09-27T23:45:44.868Z,3.77
2018-09-27T23:48:13.075Z,3.47
2018-09-27T23:50:41.343Z,3.07
2018-09-27T23:53:09.537Z,3.10
2018-09-27T23:55:37.750Z,3.13
2018-09-27T23:58:05.990Z,3.10
